createdAt,value
2023-05-11T00:03:36.175Z,68.80
2023-05-11T00:08:38.678Z,68.80
2023-05-11T00:13:40.933Z,68.80
2023-05-11T00:18:43.223Z,69.10
2023-05-11T00:23:45.498Z,68.90
2023-05-11T00:28:47.722Z,69.20
2023-05-11T00:33:50.043Z,69.50
2023-05-11T00:38:53.017Z,69.20
2023-05-11T00:43:55.315Z,70.10
2023-05-11T00:48:58.053Z,69.90
2023-05-11T00:54:01.129Z,70.00
2023-05-11T00:59:03.800Z,70.10
2023-05-11T01:04:07.528Z,70.00
2023-05-11T01:09:20.446Z,70.10
2023-05-11T01:14:34.830Z,69.70
2023-05-11T01:25:27.546Z,69.80
2023-05-11T01:30:48.243Z,69.80
2023-05-11T01:35:55.037Z,69.70
2023-05-11T01:41:00.286Z,69.90
2023-05-11T01:46:04.323Z,69.40
2023-05-11T01:51:09.180Z,69.40
2023-05-11T01:56:12.096Z,69.60
2023-05-11T02:01:16.221Z,70.30
2023-05-11T02:06:20.033Z,70.50
2023-05-11T02:11:26.789Z,69.50
2023-05-11T02:16:32.685Z,70.20
2023-05-11T02:21:36.420Z,69.90
2023-05-11T02:26:38.729Z,70.00
2023-05-11T02:31:45.890Z,70.10
2023-05-11T02:36:55.886Z,70.30
2023-05-11T02:42:01.790Z,70.60
2023-05-11T02:47:09.822Z,70.60
2023-05-11T02:52:15.635Z,70.30
2023-05-11T02:57:21.668Z,70.60
2023-05-11T03:02:24.659Z,70.50
2023-05-11T03:07:27.928Z,70.10
2023-05-11T03:12:34.041Z,70.50
2023-05-11T03:17:39.971Z,71.10
2023-05-11T03:22:44.713Z,70.40
2023-05-11T03:27:50.687Z,70.50
2023-05-11T03:32:53.449Z,70.60
2023-05-11T03:37:57.663Z,70.50
2023-05-11T03:43:05.468Z,70.40
2023-05-11T03:48:09.519Z,70.30
2023-05-11T03:53:13.476Z,70.20
2023-05-11T03:58:16.213Z,71.00
2023-05-11T04:03:18.708Z,70.70
2023-05-11T04:08:22.004Z,70.30
2023-05-11T04:13:24.312Z,70.00
2023-05-11T04:18:26.890Z,70.30
2023-05-11T04:23:29.169Z,70.40
2023-05-11T04:28:34.114Z,70.60
2023-05-11T04:33:36.391Z,71.00
2023-05-11T04:38:39.246Z,70.70
2023-05-11T04:43:42.418Z,71.00
2023-05-11T04:48:46.248Z,71.30
2023-05-11T04:53:49.156Z,71.20
2023-05-11T04:58:51.534Z,71.10
2023-05-11T05:03:53.988Z,71.50
2023-05-11T05:08:58.239Z,71.10
2023-05-11T05:14:01.034Z,71.10
2023-05-11T05:19:03.700Z,71.00
2023-05-11T05:24:07.215Z,70.70
2023-05-11T05:29:09.418Z,71.20
2023-05-11T05:34:15.576Z,71.50
2023-05-11T05:39:19.441Z,70.90
2023-05-11T05:44:21.929Z,70.90
2023-05-11T05:49:24.817Z,71.60
2023-05-11T05:54:27.825Z,71.10
2023-05-11T05:59:32.014Z,71.10
2023-05-11T06:04:34.676Z,71.10
2023-05-11T06:09:39.135Z,70.80
2023-05-11T06:14:41.777Z,70.00
2023-05-11T06:19:44.702Z,70.10
2023-05-11T06:24:47.170Z,69.00
2023-05-11T06:29:50.335Z,68.00
2023-05-11T06:34:52.823Z,68.10
2023-05-11T06:39:57.005Z,68.10
2023-05-11T06:44:59.419Z,68.70
2023-05-11T06:50:06.349Z,68.70
2023-05-11T06:55:13.007Z,69.40
2023-05-11T07:00:15.973Z,70.30
2023-05-11T07:05:19.074Z,72.60
2023-05-11T07:10:21.874Z,70.30
2023-05-11T07:15:24.504Z,73.60
2023-05-11T07:20:27.869Z,66.30
2023-05-11T07:25:30.433Z,66.70
2023-05-11T07:30:32.732Z,66.20
2023-05-11T07:35:35.052Z,66.70
2023-05-11T07:40:37.342Z,67.20
2023-05-11T07:45:40.271Z,67.50
2023-05-11T07:50:42.943Z,67.70
2023-05-11T07:55:45.147Z,67.30
2023-05-11T08:00:47.423Z,66.40
2023-05-11T08:05:49.857Z,67.40
2023-05-11T08:10:53.200Z,67.40
2023-05-11T08:15:55.569Z,68.00
2023-05-11T08:21:00.197Z,67.50
2023-05-11T08:26:02.835Z,67.00
2023-05-11T08:31:06.358Z,67.70
2023-05-11T08:36:08.942Z,67.70
2023-05-11T08:41:12.873Z,67.10
2023-05-11T08:46:20.352Z,66.90
2023-05-11T08:51:23.883Z,66.00
2023-05-11T08:56:26.722Z,67.00
2023-05-11T09:01:29.926Z,67.50
2023-05-11T09:06:32.808Z,68.00
2023-05-11T09:11:35.568Z,66.90
2023-05-11T09:16:37.936Z,66.00
2023-05-11T09:21:40.644Z,66.30
2023-05-11T09:26:42.862Z,67.20
2023-05-11T09:31:47.384Z,67.30
2023-05-11T09:36:52.776Z,67.40
2023-05-11T09:42:15.909Z,66.40
2023-05-11T09:47:22.501Z,66.60
2023-05-11T09:52:24.979Z,66.60
2023-05-11T09:57:29.885Z,66.80
2023-05-11T10:02:33.531Z,66.10
2023-05-11T10:07:36.854Z,66.80
2023-05-11T10:12:40.457Z,67.20
2023-05-11T10:17:44.776Z,66.70
2023-05-11T10:22:47.758Z,67.00
2023-05-11T10:27:51.440Z,65.90
2023-05-11T10:32:55.390Z,66.60
2023-05-11T10:37:58.495Z,66.40
2023-05-11T10:43:27.451Z,66.00
2023-05-11T10:48:55.056Z,66.00
2023-05-11T10:54:14.635Z,65.70
2023-05-11T11:04:49.059Z,66.50
2023-05-11T11:10:00.766Z,66.00
2023-05-11T11:15:06.591Z,66.80
2023-05-11T11:20:29.807Z,67.40
2023-05-11T11:25:54.051Z,66.80
2023-05-11T11:42:09.424Z,67.40
2023-05-11T11:57:46.661Z,67.60
2023-05-11T12:02:49.087Z,67.80
2023-05-11T12:07:53.400Z,67.30
2023-05-11T12:12:59.933Z,68.00
2023-05-11T12:18:03.460Z,67.30
2023-05-11T12:23:05.895Z,67.70
2023-05-11T12:28:08.181Z,67.70
2023-05-11T12:33:15.209Z,67.50
2023-05-11T12:38:18.541Z,67.60
2023-05-11T12:43:22.224Z,66.40
2023-05-11T12:48:24.829Z,66.60
2023-05-11T13:19:06.389Z,69.60
2023-05-11T13:24:21.096Z,68.30
2023-05-11T13:29:23.454Z,67.80
2023-05-11T13:34:25.766Z,68.30
2023-05-11T13:39:28.024Z,67.50
2023-05-11T13:44:30.342Z,67.50
2023-05-11T13:49:32.524Z,66.90
2023-05-11T13:54:34.737Z,68.00
2023-05-11T13:59:36.964Z,67.60
2023-05-11T14:04:40.509Z,67.90
2023-05-11T14:09:43.985Z,68.00
2023-05-11T14:14:46.335Z,67.50
2023-05-11T14:19:48.622Z,67.80
2023-05-11T14:24:50.859Z,67.60
2023-05-11T14:29:53.176Z,67.70
2023-05-11T14:34:56.035Z,67.40
2023-05-11T14:39:58.539Z,67.90
2023-05-11T14:45:00.839Z,67.90
2023-05-11T14:50:03.177Z,67.60
2023-05-11T14:55:05.810Z,67.30
2023-05-11T15:00:08.707Z,67.40
2023-05-11T15:05:10.991Z,67.40
2023-05-11T15:10:13.227Z,67.80
2023-05-11T15:15:16.808Z,67.50
2023-05-11T15:20:19.553Z,67.90
2023-05-11T15:25:21.954Z,67.90
2023-05-11T15:30:24.523Z,68.30
2023-05-11T15:35:26.885Z,68.30
2023-05-11T15:40:29.358Z,68.20
2023-05-11T15:45:31.696Z,68.70
2023-05-11T15:50:34.010Z,69.30
2023-05-11T15:55:37.094Z,69.30
2023-05-11T16:00:39.424Z,69.10
2023-05-11T16:05:41.648Z,69.50
2023-05-11T16:10:44.177Z,69.30
2023-05-11T16:15:46.495Z,69.50
2023-05-11T16:20:48.738Z,69.50
2023-05-11T16:25:51.433Z,69.50
2023-05-11T16:30:57.192Z,69.70
2023-05-11T16:36:01.356Z,70.20
2023-05-11T16:41:04.045Z,70.30
2023-05-11T16:46:06.613Z,69.90
2023-05-11T16:51:09.073Z,70.10
2023-05-11T16:56:11.931Z,70.00
2023-05-11T17:01:15.076Z,69.80
2023-05-11T17:06:20.951Z,69.70
2023-05-11T17:11:23.926Z,69.50
2023-05-11T17:16:26.335Z,69.80
2023-05-11T17:21:28.784Z,69.60
2023-05-11T17:26:39.611Z,69.70
2023-05-11T17:31:51.720Z,69.70
2023-05-11T17:36:54.720Z,70.00
2023-05-11T17:41:56.931Z,69.80
2023-05-11T17:46:59.287Z,69.60
2023-05-11T17:52:01.681Z,69.70
2023-05-11T17:57:05.277Z,69.90
2023-05-11T18:02:08.067Z,69.90
2023-05-11T18:07:10.292Z,70.20
2023-05-11T18:12:12.739Z,69.70
2023-05-11T18:17:15.021Z,69.80
2023-05-11T18:22:17.569Z,70.00
2023-05-11T18:27:19.872Z,70.20
2023-05-11T18:32:22.395Z,70.40
2023-05-11T18:37:24.578Z,70.60
2023-05-11T18:42:26.877Z,70.10
2023-05-11T18:47:29.190Z,70.20
2023-05-11T18:52:31.472Z,70.50
2023-05-11T18:57:34.571Z,70.40
2023-05-11T19:02:37.286Z,71.30
2023-05-11T19:07:39.881Z,71.10
2023-05-11T19:12:42.424Z,70.80
2023-05-11T19:17:44.742Z,70.90
2023-05-11T19:22:47.150Z,70.90
2023-05-11T19:27:49.507Z,71.30
2023-05-11T19:32:52.001Z,71.20
2023-05-11T19:37:54.816Z,71.00
2023-05-11T19:42:57.547Z,71.40
2023-05-11T19:48:00.739Z,70.70
2023-05-11T19:53:03.026Z,70.90
2023-05-11T19:58:06.858Z,71.60
2023-05-11T20:03:09.318Z,71.10
2023-05-11T20:08:11.572Z,71.10
2023-05-11T20:13:13.800Z,70.90
2023-05-11T20:18:18.461Z,71.20
2023-05-11T20:23:20.676Z,70.80
2023-05-11T20:28:27.072Z,71.20
2023-05-11T20:38:34.907Z,71.40
2023-05-11T20:43:37.184Z,71.00
2023-05-11T20:48:40.992Z,70.80
2023-05-11T20:53:44.392Z,70.90
2023-05-11T20:58:47.542Z,71.30
2023-05-11T21:03:49.779Z,71.60
2023-05-11T21:08:52.027Z,71.00
2023-05-11T21:13:54.240Z,70.40
2023-05-11T21:18:56.531Z,71.20
2023-05-11T21:23:58.982Z,70.90
2023-05-11T21:29:01.356Z,71.10
2023-05-11T21:34:03.566Z,71.60
2023-05-11T21:39:05.864Z,71.40
2023-05-11T21:44:08.127Z,71.60
2023-05-11T21:49:10.442Z,72.10
2023-05-11T21:54:12.724Z,71.70
2023-05-11T21:59:17.143Z,71.80
2023-05-11T22:04:20.676Z,72.20
2023-05-11T22:09:22.913Z,72.20
2023-05-11T22:14:25.150Z,72.10
2023-05-11T22:19:27.453Z,71.70
2023-05-11T22:24:29.705Z,71.70
2023-05-11T22:29:31.974Z,71.70
2023-05-11T22:34:34.276Z,71.20
2023-05-11T22:39:36.538Z,71.40
2023-05-11T22:44:38.749Z,71.30
2023-05-11T22:49:40.976Z,71.90
2023-05-11T22:54:43.180Z,71.40
2023-05-11T22:59:46.781Z,71.90
2023-05-11T23:04:51.860Z,72.00
2023-05-11T23:09:54.182Z,71.80
2023-05-11T23:14:56.457Z,71.90
2023-05-11T23:19:58.823Z,72.20
2023-05-11T23:25:01.284Z,72.10
2023-05-11T23:30:03.976Z,72.10
2023-05-11T23:35:07.850Z,71.90
2023-05-11T23:40:10.282Z,72.20
2023-05-11T23:45:13.535Z,72.30
2023-05-11T23:50:15.839Z,72.40
2023-05-11T23:55:18.200Z,72.80
